createdAt,value
2018-12-21T00:00:53.647Z,8.92
2018-12-21T00:01:53.400Z,8.97
2018-12-21T00:02:53.425Z,8.97
2018-12-21T00:03:53.437Z,8.94
2018-12-21T00:04:53.192Z,8.88
2018-12-21T00:05:53.470Z,8.89
2018-12-21T00:06:53.236Z,8.88
2018-12-21T00:07:53.523Z,8.91
2018-12-21T00:08:53.535Z,8.89
2018-12-21T00:09:53.305Z,8.87
2018-12-21T00:10:53.314Z,8.91
2018-12-21T00:11:53.588Z,8.92
2018-12-21T00:12:53.347Z,8.88
2018-12-21T00:13:53.613Z,8.91
2018-12-21T00:14:53.630Z,8.89
2018-12-21T00:15:53.409Z,8.91
2018-12-21T00:16:53.436Z,8.85
2018-12-21T00:17:53.436Z,8.87
2018-12-21T00:18:53.716Z,8.85
2018-12-21T00:19:53.980Z,8.89
2018-12-21T00:20:54.011Z,8.78
2018-12-21T00:21:53.511Z,8.85
2018-12-21T00:22:53.794Z,8.88
2018-12-21T00:23:53.805Z,8.84
2018-12-21T00:24:53.819Z,8.73
2018-12-21T00:25:54.104Z,8.81
2018-12-21T00:26:54.116Z,8.85
2018-12-21T00:27:53.873Z,8.84
2018-12-21T00:28:53.633Z,8.81
2018-12-21T00:29:54.167Z,8.81
2018-12-21T00:30:53.931Z,8.76
2018-12-21T00:31:53.938Z,8.79
2018-12-21T00:32:53.981Z,8.84
2018-12-21T00:33:53.979Z,8.74
2018-12-21T00:34:53.749Z,8.73
2018-12-21T00:35:54.014Z,8.78
2018-12-21T00:36:53.775Z,8.89
2018-12-21T00:37:53.792Z,8.81
2018-12-21T00:38:54.082Z,8.79
2018-12-21T00:39:54.202Z,8.87
2018-12-21T00:40:54.112Z,8.85
2018-12-21T00:41:54.130Z,8.85
2018-12-21T00:42:54.154Z,8.74
2018-12-21T00:43:54.166Z,8.84
2018-12-21T00:44:54.179Z,8.87
2018-12-21T00:45:54.209Z,8.79
2018-12-21T00:46:53.969Z,8.84
2018-12-21T00:47:53.978Z,8.74
2018-12-21T00:48:54.255Z,8.87
2018-12-21T00:49:54.283Z,8.84
2018-12-21T00:50:54.050Z,8.78
2018-12-21T00:51:54.052Z,8.84
2018-12-21T00:52:54.077Z,8.78
2018-12-21T00:53:54.104Z,8.78
2018-12-21T00:54:54.368Z,8.79
2018-12-21T00:55:54.137Z,8.81
2018-12-21T00:56:54.250Z,8.81
2018-12-21T00:57:54.425Z,8.84
2018-12-21T00:58:54.184Z,8.79
2018-12-21T00:59:54.455Z,8.84
2018-12-21T01:00:54.749Z,8.84
2018-12-21T01:01:54.496Z,8.82
2018-12-21T01:02:54.512Z,8.81
2018-12-21T01:03:54.273Z,8.85
2018-12-21T01:04:54.290Z,8.88
2018-12-21T01:05:54.568Z,8.94
2018-12-21T01:06:54.609Z,8.85
2018-12-21T01:07:54.350Z,8.82
2018-12-21T01:08:54.635Z,8.91
2018-12-21T01:09:54.389Z,8.91
2018-12-21T01:10:54.403Z,8.88
2018-12-21T01:11:54.942Z,8.85
2018-12-21T01:12:54.690Z,8.85
2018-12-21T01:13:54.709Z,8.88
2018-12-21T01:14:54.726Z,8.88
2018-12-21T01:15:54.494Z,8.88
2018-12-21T01:16:55.035Z,8.84
2018-12-21T01:17:54.530Z,8.87
2018-12-21T01:18:54.546Z,8.71
2018-12-21T01:19:54.566Z,8.88
2018-12-21T01:20:54.587Z,8.85
2018-12-21T01:21:54.598Z,8.82
2018-12-21T01:22:54.621Z,8.85
2018-12-21T01:23:54.898Z,8.82
2018-12-21T01:24:54.915Z,8.84
2018-12-21T01:25:55.205Z,8.88
2018-12-21T01:26:54.695Z,8.73
2018-12-21T01:27:55.232Z,8.92
2018-12-21T01:28:55.247Z,8.89
2018-12-21T01:29:55.005Z,8.87
2018-12-21T01:30:55.034Z,8.87
2018-12-21T01:31:55.056Z,8.87
2018-12-21T01:32:55.071Z,8.91
2018-12-21T01:33:54.816Z,8.81
2018-12-21T01:34:55.189Z,8.91
2018-12-21T01:35:55.114Z,8.84
2018-12-21T01:36:55.398Z,8.87
2018-12-21T01:37:55.155Z,8.88
2018-12-21T01:38:55.178Z,8.87
2018-12-21T01:39:54.929Z,8.85
2018-12-21T01:40:55.214Z,8.91
2018-12-21T01:41:55.232Z,8.88
2018-12-21T01:42:54.991Z,8.91
2018-12-21T01:43:55.267Z,8.91
2018-12-21T01:44:55.033Z,8.82
2018-12-21T01:45:55.315Z,8.95
2018-12-21T01:46:55.318Z,8.92
2018-12-21T01:47:55.343Z,8.85
2018-12-21T01:48:55.351Z,8.88
2018-12-21T01:49:55.384Z,8.85
2018-12-21T01:50:55.390Z,8.89
2018-12-21T01:51:55.148Z,8.88
2018-12-21T01:52:55.441Z,8.85
2018-12-21T01:53:55.450Z,8.89
2018-12-21T01:54:55.610Z,8.87
2018-12-21T01:55:55.228Z,8.71
2018-12-21T01:56:55.512Z,8.85
2018-12-21T01:57:55.255Z,8.82
2018-12-21T01:58:55.279Z,8.79
2018-12-21T01:59:55.807Z,8.87
2018-12-21T02:00:55.319Z,8.88
2018-12-21T02:01:55.851Z,8.74
2018-12-21T02:02:55.608Z,8.87
2018-12-21T02:03:55.380Z,8.81
2018-12-21T02:04:55.396Z,8.85
2018-12-21T02:05:55.685Z,8.84
2018-12-21T02:06:55.694Z,8.84
2018-12-21T02:07:55.716Z,8.79
2018-12-21T02:08:55.992Z,8.76
2018-12-21T02:09:55.750Z,8.88
2018-12-21T02:10:55.512Z,8.78
2018-12-21T02:11:55.785Z,8.88
2018-12-21T02:12:55.535Z,8.82
2018-12-21T02:13:55.564Z,8.85
2018-12-21T02:14:55.837Z,8.73
2018-12-21T02:15:55.858Z,8.88
2018-12-21T02:16:55.615Z,8.71
2018-12-21T02:17:56.162Z,8.79
2018-12-21T02:18:55.644Z,8.73
2018-12-21T02:19:55.661Z,8.76
2018-12-21T02:20:56.199Z,8.84
2018-12-21T02:22:00.786Z,8.88
2018-12-21T02:22:55.729Z,8.85
2018-12-21T02:23:56.011Z,8.84
2018-12-21T02:24:56.015Z,8.87
2018-12-21T02:25:55.844Z,8.88
2018-12-21T02:26:56.051Z,8.88
2018-12-21T02:27:56.076Z,8.91
2018-12-21T02:28:55.834Z,8.85
2018-12-21T02:29:56.108Z,8.91
2018-12-21T02:30:56.383Z,8.89
2018-12-21T02:31:55.885Z,8.95
2018-12-21T02:32:56.454Z,8.92
2018-12-21T02:33:56.184Z,8.89
2018-12-21T02:34:56.206Z,8.88
2018-12-21T02:35:56.602Z,8.89
2018-12-21T02:36:56.514Z,8.92
2018-12-21T02:37:56.264Z,8.89
2018-12-21T02:38:56.019Z,8.91
2018-12-21T02:39:56.038Z,8.92
2018-12-21T02:40:56.577Z,8.94
2018-12-21T02:41:56.346Z,8.92
2018-12-21T02:42:56.098Z,9
2018-12-21T02:43:56.107Z,8.89
2018-12-21T02:44:56.394Z,8.95
2018-12-21T02:45:56.682Z,8.91
2018-12-21T02:46:56.688Z,8.91
2018-12-21T02:47:56.452Z,8.94
2018-12-21T02:48:56.456Z,8.95
2018-12-21T02:49:56.481Z,9
2018-12-21T02:50:56.761Z,8.94
2018-12-21T02:52:05.180Z,8.95
2018-12-21T02:52:56.546Z,8.97
2018-12-21T02:53:56.557Z,8.94
2018-12-21T02:54:56.574Z,9
2018-12-21T02:55:56.586Z,8.89
2018-12-21T02:56:56.618Z,8.89
2018-12-21T02:57:56.367Z,8.95
2018-12-21T02:58:56.638Z,8.89
2018-12-21T02:59:56.916Z,8.91
2018-12-21T03:00:56.949Z,9
2018-12-21T03:01:56.746Z,9
2018-12-21T03:02:56.469Z,9
2018-12-21T03:03:56.477Z,8.97
2018-12-21T03:04:57.027Z,9
2018-12-21T03:05:56.773Z,8.97
2018-12-21T03:06:56.793Z,8.94
2018-12-21T03:07:56.860Z,8.99
2018-12-21T03:08:56.829Z,8.95
2018-12-21T03:09:56.577Z,8.94
2018-12-21T03:10:57.138Z,9.03
2018-12-21T03:11:56.987Z,8.95
2018-12-21T03:12:57.164Z,8.95
2018-12-21T03:13:57.177Z,8.95
2018-12-21T03:14:57.075Z,8.92
2018-12-21T03:15:56.956Z,8.95
2018-12-21T03:16:56.730Z,9
2018-12-21T03:17:56.991Z,8.95
2018-12-21T03:18:57.283Z,8.97
2018-12-21T03:19:56.767Z,8.97
2018-12-21T03:20:57.054Z,8.94
2018-12-21T03:21:57.057Z,8.95
2018-12-21T03:22:56.839Z,8.95
2018-12-21T03:23:57.406Z,9
2018-12-21T03:24:57.376Z,8.94
2018-12-21T03:25:57.135Z,8.97
2018-12-21T03:26:56.898Z,8.97
2018-12-21T03:27:57.431Z,9.02
2018-12-21T03:28:57.185Z,9
2018-12-21T03:29:57.210Z,8.94
2018-12-21T03:30:57.265Z,8.95
2018-12-21T03:31:57.264Z,8.91
2018-12-21T03:32:57.228Z,8.97
2018-12-21T03:33:57.303Z,8.94
2018-12-21T03:34:57.602Z,8.95
2018-12-21T03:35:57.077Z,9
2018-12-21T03:36:57.333Z,8.91
2018-12-21T03:37:57.101Z,8.97
2018-12-21T03:38:57.401Z,9
2018-12-21T03:39:57.400Z,8.91
2018-12-21T03:40:57.419Z,8.95
2018-12-21T03:41:57.430Z,9.02
2018-12-21T03:42:57.455Z,8.95
2018-12-21T03:43:57.209Z,9
2018-12-21T03:44:57.485Z,9.04
2018-12-21T03:45:57.759Z,8.97
2018-12-21T03:46:57.525Z,8.94
2018-12-21T03:47:57.537Z,8.95
2018-12-21T03:48:57.555Z,9.02
2018-12-21T03:49:57.581Z,8.97
2018-12-21T03:50:57.603Z,9
2018-12-21T03:51:57.354Z,9.03
2018-12-21T03:52:57.896Z,9
2018-12-21T03:53:57.402Z,9.02
2018-12-21T03:54:57.665Z,9
2018-12-21T03:55:57.428Z,9
2018-12-21T03:56:57.443Z,8.97
2018-12-21T03:57:57.814Z,9.03
2018-12-21T03:58:57.745Z,9.02
2018-12-21T03:59:58.029Z,8.92
2018-12-21T04:00:58.042Z,8.99
2018-12-21T04:01:57.796Z,8.97
2018-12-21T04:02:58.086Z,8.97
2018-12-21T04:03:57.583Z,9.02
2018-12-21T04:04:57.853Z,8.97
2018-12-21T04:05:57.618Z,9.02
2018-12-21T04:06:57.896Z,8.97
2018-12-21T04:07:57.944Z,9
2018-12-21T04:08:58.324Z,9
2018-12-21T04:09:57.689Z,9.03
2018-12-21T04:10:57.960Z,9
2018-12-21T04:11:57.720Z,8.94
2018-12-21T04:12:57.998Z,8.91
2018-12-21T04:13:58.019Z,8.91
2018-12-21T04:14:58.038Z,8.95
2018-12-21T04:15:58.312Z,8.94
2018-12-21T04:16:58.228Z,8.99
2018-12-21T04:17:57.829Z,9
2018-12-21T04:18:58.110Z,8.97
2018-12-21T04:19:57.871Z,9.02
2018-12-21T04:20:58.151Z,8.97
2018-12-21T04:21:58.162Z,9
2018-12-21T04:22:57.918Z,8.94
2018-12-21T04:23:57.948Z,8.97
2018-12-21T04:24:57.959Z,8.97
2018-12-21T04:25:57.980Z,8.97
2018-12-21T04:26:58.256Z,8.95
2018-12-21T04:27:58.278Z,8.99
2018-12-21T04:28:58.041Z,9.03
2018-12-21T04:29:58.299Z,8.97
2018-12-21T04:30:58.328Z,8.91
2018-12-21T04:31:58.081Z,8.97
2018-12-21T04:32:58.110Z,9
2018-12-21T04:33:58.137Z,8.99
2018-12-21T04:34:58.397Z,9.03
2018-12-21T04:35:58.159Z,9.04
2018-12-21T04:36:58.180Z,9.04
2018-12-21T04:37:58.200Z,8.94
2018-12-21T04:38:58.225Z,8.97
2018-12-21T04:39:58.246Z,8.95
2018-12-21T04:40:58.788Z,9.03
2018-12-21T04:41:58.523Z,9
2018-12-21T04:42:58.284Z,9.03
2018-12-21T04:43:58.322Z,8.97
2018-12-21T04:44:58.865Z,8.97
2018-12-21T04:45:58.345Z,8.97
2018-12-21T04:46:58.362Z,8.97
2018-12-21T04:47:58.638Z,9
2018-12-21T04:48:58.664Z,9.02
2018-12-21T04:49:58.942Z,8.94
2018-12-21T04:50:58.688Z,9
2018-12-21T04:51:58.855Z,9.06
2018-12-21T04:52:58.986Z,9.02
2018-12-21T04:53:59.747Z,9.02
2018-12-21T04:54:59.032Z,9.02
2018-12-21T04:55:58.792Z,9.02
2018-12-21T04:56:59.059Z,9.06
2018-12-21T04:57:58.820Z,9.02
2018-12-21T04:58:58.833Z,9
2018-12-21T04:59:59.116Z,9.02
2018-12-21T05:00:58.870Z,8.99
2018-12-21T05:01:59.162Z,8.97
2018-12-21T05:02:58.673Z,8.99
2018-12-21T05:03:58.676Z,9.04
2018-12-21T05:04:58.950Z,8.94
2018-12-21T05:05:58.725Z,9
2018-12-21T05:06:59.122Z,9.02
2018-12-21T05:07:58.748Z,9
2018-12-21T05:08:59.026Z,8.94
2018-12-21T05:09:59.301Z,9.1
2018-12-21T05:10:59.060Z,8.95
2018-12-21T05:11:59.323Z,8.94
2018-12-21T05:12:59.095Z,8.97
2018-12-21T05:13:59.119Z,9.02
2018-12-21T05:14:59.142Z,8.99
2018-12-21T05:15:59.140Z,9.04
2018-12-21T05:16:59.165Z,9.02
2018-12-21T05:17:58.919Z,9.04
2018-12-21T05:18:59.458Z,8.94
2018-12-21T05:19:59.222Z,9.02
2018-12-21T05:20:59.234Z,9.04
2018-12-21T05:21:59.278Z,9.04
2018-12-21T05:22:59.275Z,9.08
2018-12-21T05:23:59.028Z,9.03
2018-12-21T05:24:59.314Z,9.04
2018-12-21T05:25:59.339Z,9.13
2018-12-21T05:26:59.617Z,9.03
2018-12-21T05:27:59.358Z,9.08
2018-12-21T05:28:59.395Z,9.1
2018-12-21T05:29:59.657Z,9.02
2018-12-21T05:30:59.696Z,9.08
2018-12-21T05:31:59.439Z,9.06
2018-12-21T05:32:59.730Z,9.1
2018-12-21T05:33:59.228Z,9.08
2018-12-21T05:34:59.340Z,9.04
2018-12-21T05:35:59.764Z,9.06
2018-12-21T05:36:59.525Z,9.08
2018-12-21T05:37:59.554Z,9.08
2018-12-21T05:38:59.304Z,9.03
2018-12-21T05:39:59.591Z,9.1
2018-12-21T05:40:59.359Z,9.1
2018-12-21T05:41:59.357Z,9.21
2018-12-21T05:42:59.922Z,9.13
2018-12-21T05:43:59.667Z,9.1
2018-12-21T05:44:59.414Z,9.08
2018-12-21T05:45:59.690Z,9.04
2018-12-21T05:46:59.722Z,9.04
2018-12-21T05:48:00.839Z,9.19
2018-12-21T05:48:59.783Z,9.08
2018-12-21T05:49:59.800Z,9.19
2018-12-21T05:50:59.839Z,9.22
2018-12-21T05:52:00.062Z,9.19
2018-12-21T05:53:05.734Z,9.19
2018-12-21T05:54:00.099Z,9.23
2018-12-21T05:54:59.875Z,9.21
2018-12-21T05:55:59.631Z,9.18
2018-12-21T05:56:59.918Z,9.19
2018-12-21T05:57:59.672Z,9.19
2018-12-21T05:58:59.673Z,9.21
2018-12-21T05:59:59.950Z,9.19
2018-12-21T06:00:59.711Z,9.22
2018-12-21T06:02:00.242Z,9.19
2018-12-21T06:03:00.017Z,9.22
2018-12-21T06:04:00.019Z,9.22
2018-12-21T06:05:00.294Z,9.19
2018-12-21T06:05:59.811Z,9.14
2018-12-21T06:06:59.818Z,9.23
2018-12-21T06:08:00.350Z,9.13
2018-12-21T06:08:59.852Z,9.14
2018-12-21T06:09:59.874Z,9.18
2018-12-21T06:10:59.891Z,9.18
2018-12-21T06:12:00.177Z,9.19
2018-12-21T06:13:00.192Z,9.23
2018-12-21T06:14:01.044Z,9.18
2018-12-21T06:15:00.241Z,9.11
2018-12-21T06:15:59.984Z,9.21
2018-12-21T06:17:00.289Z,9.11
2018-12-21T06:18:00.290Z,9.25
2018-12-21T06:19:00.289Z,9.16
2018-12-21T06:20:00.052Z,9.18
2018-12-21T06:21:00.328Z,9.18
2018-12-21T06:22:00.094Z,9.26
2018-12-21T06:23:00.139Z,9.18
2018-12-21T06:24:00.388Z,9.22
2018-12-21T06:25:00.142Z,9.23
2018-12-21T06:26:00.427Z,9.16
2018-12-21T06:27:00.448Z,9.14
2018-12-21T06:28:00.455Z,9.18
2018-12-21T06:29:00.219Z,9.21
2018-12-21T06:30:00.249Z,9.14
2018-12-21T06:31:00.891Z,9.14
2018-12-21T06:32:00.806Z,9.18
2018-12-21T06:33:00.551Z,9.18
2018-12-21T06:34:00.316Z,9.14
2018-12-21T06:35:00.336Z,9.14
2018-12-21T06:36:00.862Z,9.18
2018-12-21T06:37:00.888Z,9.22
2018-12-21T06:38:00.650Z,9.22
2018-12-21T06:39:00.675Z,9.29
2018-12-21T06:40:00.938Z,9.26
2018-12-21T06:41:00.696Z,9.26
2018-12-21T06:42:00.724Z,9.29
2018-12-21T06:43:00.733Z,9.29
2018-12-21T06:44:00.752Z,9.25
2018-12-21T06:45:00.766Z,9.16
2018-12-21T06:46:01.050Z,9.26
2018-12-21T06:47:00.808Z,9.21
2018-12-21T06:48:00.833Z,9.21
2018-12-21T06:49:00.840Z,9.26
2018-12-21T06:50:01.119Z,9.29
2018-12-21T06:51:00.895Z,9.21
2018-12-21T06:52:00.891Z,9.25
2018-12-21T06:53:00.920Z,9.29
2018-12-21T06:54:01.302Z,9.28
2018-12-21T06:55:00.697Z,9.29
2018-12-21T06:56:01.242Z,9.25
2018-12-21T06:57:00.987Z,9.26
2018-12-21T06:58:01.263Z,9.29
2018-12-21T06:59:01.279Z,9.29
2018-12-21T07:00:01.041Z,9.22
2018-12-21T07:01:02.890Z,9.22
2018-12-21T07:02:01.076Z,9.28
2018-12-21T07:03:01.102Z,9.14
2018-12-21T07:04:01.116Z,9.26
2018-12-21T07:05:01.140Z,9.25
2018-12-21T07:06:01.159Z,9.22
2018-12-21T07:07:01.429Z,9.29
2018-12-21T07:08:01.510Z,9.29
2018-12-21T07:09:01.208Z,9.29
2018-12-21T07:10:01.228Z,9.25
2018-12-21T07:11:01.244Z,9.26
2018-12-21T07:12:01.264Z,9.23
2018-12-21T07:13:01.293Z,9.26
2018-12-21T07:14:01.308Z,9.23
2018-12-21T07:15:01.394Z,9.23
2018-12-21T07:16:01.078Z,9.28
2018-12-21T07:17:01.612Z,9.26
2018-12-21T07:18:01.373Z,9.25
2018-12-21T07:19:01.703Z,9.26
2018-12-21T07:20:01.662Z,9.29
2018-12-21T07:21:01.433Z,9.29
2018-12-21T07:22:01.446Z,9.29
2018-12-21T07:23:01.476Z,9.28
2018-12-21T07:24:01.742Z,9.28
2018-12-21T07:25:01.787Z,9.28
2018-12-21T07:26:01.777Z,9.29
2018-12-21T07:27:01.538Z,9.31
2018-12-21T07:28:01.564Z,9.29
2018-12-21T07:29:01.665Z,9.26
2018-12-21T07:30:01.592Z,9.25
2018-12-21T07:31:01.618Z,9.28
2018-12-21T07:32:01.364Z,9.25
2018-12-21T07:33:01.661Z,9.26
2018-12-21T07:34:01.743Z,9.29
2018-12-21T07:35:01.712Z,9.21
2018-12-21T07:36:11.231Z,9.31
2018-12-21T07:37:01.719Z,9.23
2018-12-21T07:38:01.734Z,9.22
2018-12-21T07:39:02.010Z,9.22
2018-12-21T07:40:01.520Z,9.29
2018-12-21T07:41:01.538Z,9.22
2018-12-21T07:42:01.547Z,9.25
2018-12-21T07:43:01.670Z,9.26
2018-12-21T07:44:01.589Z,9.32
2018-12-21T07:45:01.618Z,9.25
2018-12-21T07:46:01.892Z,9.32
2018-12-21T07:47:01.916Z,9.31
2018-12-21T07:48:01.927Z,9.23
2018-12-21T07:49:01.941Z,9.25
2018-12-21T07:50:01.970Z,9.29
2018-12-21T07:51:01.989Z,9.31
2018-12-21T07:52:01.754Z,9.28
2018-12-21T07:53:02.033Z,9.23
2018-12-21T07:54:01.785Z,9.26
2018-12-21T07:55:02.070Z,9.32
2018-12-21T07:56:01.807Z,9.28
2018-12-21T07:57:02.082Z,9.28
2018-12-21T07:58:03.023Z,9.31
2018-12-21T07:59:02.386Z,9.32
2018-12-21T08:00:02.403Z,9.31
2018-12-21T08:01:02.453Z,9.34
2018-12-21T08:02:02.445Z,9.28
2018-12-21T08:03:02.309Z,9.31
2018-12-21T08:04:01.959Z,9.26
2018-12-21T08:05:01.984Z,9.25
2018-12-21T08:06:02.248Z,9.29
2018-12-21T08:07:02.007Z,9.25
2018-12-21T08:08:02.026Z,9.23
2018-12-21T08:09:02.044Z,9.25
2018-12-21T08:10:02.067Z,9.23
2018-12-21T08:11:02.354Z,9.23
2018-12-21T08:12:02.645Z,9.26
2018-12-21T08:13:02.647Z,9.18
2018-12-21T08:14:02.406Z,9.18
2018-12-21T08:15:02.674Z,9.22
2018-12-21T08:16:02.443Z,9.29
2018-12-21T08:17:02.711Z,9.25
2018-12-21T08:18:02.731Z,9.29
2018-12-21T08:19:02.579Z,9.23
2018-12-21T08:20:02.506Z,9.28
2018-12-21T08:21:02.801Z,9.13
2018-12-21T08:22:02.545Z,9.28
2018-12-21T08:23:02.303Z,9.22
2018-12-21T08:24:02.587Z,9.28
2018-12-21T08:25:02.678Z,9.28
2018-12-21T08:26:02.368Z,9.13
2018-12-21T08:27:02.663Z,9.25
2018-12-21T08:28:02.408Z,9.18
2018-12-21T08:29:02.419Z,9.29
2018-12-21T08:30:02.704Z,9.25
2018-12-21T08:31:02.706Z,9.28
2018-12-21T08:32:02.465Z,9.25
2018-12-21T08:33:02.485Z,9.28
2018-12-21T08:34:02.761Z,9.25
2018-12-21T08:35:02.521Z,9.28
2018-12-21T08:36:02.539Z,9.26
2018-12-21T08:37:02.570Z,9.29
2018-12-21T08:38:02.589Z,9.29
2018-12-21T08:39:02.859Z,9.22
2018-12-21T08:40:02.619Z,9.22
2018-12-21T08:41:02.910Z,9.21
2018-12-21T08:42:02.650Z,9.29
2018-12-21T08:43:02.932Z,9.23
2018-12-21T08:44:02.948Z,9.26
2018-12-21T08:45:02.960Z,9.28
2018-12-21T08:46:02.735Z,9.18
2018-12-21T08:47:03.261Z,9.22
2018-12-21T08:48:03.019Z,9.18
2018-12-21T08:49:03.035Z,9.18
2018-12-21T08:50:02.796Z,9.06
2018-12-21T08:51:03.130Z,9.08
2018-12-21T08:52:02.851Z,8.95
2018-12-21T08:53:02.961Z,8.95
2018-12-21T08:54:02.880Z,8.91
2018-12-21T08:55:02.887Z,8.76
2018-12-21T08:56:03.423Z,8.81
2018-12-21T08:57:02.926Z,8.69
2018-12-21T08:58:03.216Z,8.66
2018-12-21T08:59:03.012Z,8.71
2018-12-21T09:00:03.492Z,8.71
2018-12-21T09:01:03.022Z,8.7
2018-12-21T09:02:03.282Z,8.63
2018-12-21T09:03:03.041Z,8.66
2018-12-21T09:04:03.310Z,8.69
2018-12-21T09:05:03.589Z,8.73
2018-12-21T09:06:03.342Z,8.66
2018-12-21T09:07:03.366Z,8.64
2018-12-21T09:08:03.396Z,8.63
2018-12-21T09:09:03.677Z,8.69
2018-12-21T09:10:03.446Z,8.56
2018-12-21T09:11:03.715Z,8.58
2018-12-21T09:12:03.195Z,8.55
2018-12-21T09:13:03.214Z,8.56
2018-12-21T09:14:03.232Z,8.56
2018-12-21T09:15:03.521Z,8.56
2018-12-21T09:16:03.538Z,8.55
2018-12-21T09:17:03.554Z,8.56
2018-12-21T09:18:03.579Z,8.66
2018-12-21T09:19:03.593Z,8.6
2018-12-21T09:20:03.610Z,8.53
2018-12-21T09:21:03.618Z,8.58
2018-12-21T09:22:03.629Z,8.61
2018-12-21T09:23:03.673Z,8.64
2018-12-21T09:24:05.605Z,8.61
2018-12-21T09:25:03.703Z,8.58
2018-12-21T09:26:03.454Z,8.58
2018-12-21T09:27:03.470Z,8.61
2018-12-21T09:28:03.758Z,8.64
2018-12-21T09:29:03.765Z,8.64
2018-12-21T09:30:04.041Z,8.61
2018-12-21T09:31:04.072Z,8.61
2018-12-21T09:32:09.720Z,8.61
2018-12-21T09:33:03.595Z,8.67
2018-12-21T09:34:04.003Z,8.66
2018-12-21T09:35:03.881Z,8.64
2018-12-21T09:36:03.887Z,8.6
2018-12-21T09:37:03.649Z,8.66
2018-12-21T09:38:03.680Z,8.6
2018-12-21T09:39:03.941Z,8.61
2018-12-21T09:40:03.997Z,8.63
2018-12-21T09:41:04.239Z,8.64
2018-12-21T09:42:03.998Z,8.56
2018-12-21T09:43:04.290Z,8.6
2018-12-21T09:44:04.310Z,8.58
2018-12-21T09:45:04.051Z,8.6
2018-12-21T09:46:04.077Z,8.55
2018-12-21T09:47:04.089Z,8.55
2018-12-21T09:48:03.850Z,8.63
2018-12-21T09:49:04.147Z,8.58
2018-12-21T09:50:03.886Z,8.63
2018-12-21T09:51:04.418Z,8.6
2018-12-21T09:52:04.176Z,8.56
2018-12-21T09:53:04.189Z,8.58
2018-12-21T09:54:11.963Z,8.49
2018-12-21T09:55:04.254Z,8.6
2018-12-21T09:56:04.254Z,8.56
2018-12-21T09:57:04.264Z,8.7
2018-12-21T09:58:04.025Z,8.55
2018-12-21T09:59:04.056Z,8.6
2018-12-21T10:00:04.328Z,8.58
2018-12-21T10:01:04.636Z,8.66
2018-12-21T10:02:04.111Z,8.64
2018-12-21T10:03:04.126Z,8.67
2018-12-21T10:04:04.412Z,8.66
2018-12-21T10:05:04.411Z,8.73
2018-12-21T10:06:04.166Z,8.71
2018-12-21T10:07:04.184Z,8.73
2018-12-21T10:08:04.474Z,8.78
2018-12-21T10:09:04.538Z,8.71
2018-12-21T10:10:04.503Z,8.78
2018-12-21T10:11:04.262Z,8.7
2018-12-21T10:12:04.277Z,8.71
2018-12-21T10:13:04.559Z,8.67
2018-12-21T10:14:04.837Z,8.73
2018-12-21T10:15:04.597Z,8.64
2018-12-21T10:16:04.867Z,8.67
2018-12-21T10:17:04.645Z,8.69
2018-12-21T10:18:04.674Z,8.67
2018-12-21T10:19:04.923Z,8.66
2018-12-21T10:20:04.689Z,8.74
2018-12-21T10:21:04.714Z,8.67
2018-12-21T10:22:04.738Z,8.69
2018-12-21T10:23:04.479Z,8.73
2018-12-21T10:24:05.025Z,8.73
2018-12-21T10:25:05.058Z,8.71
2018-12-21T10:26:05.052Z,8.76
2018-12-21T10:27:04.825Z,8.81
2018-12-21T10:28:04.837Z,8.84
2018-12-21T10:29:04.848Z,8.71
2018-12-21T10:30:04.878Z,8.71
2018-12-21T10:31:04.893Z,8.79
2018-12-21T10:32:06.097Z,8.78
2018-12-21T10:33:04.683Z,8.76
2018-12-21T10:34:04.979Z,8.73
2018-12-21T10:35:04.704Z,8.78
2018-12-21T10:36:04.970Z,8.78
2018-12-21T10:37:04.907Z,8.85
2018-12-21T10:38:04.755Z,8.78
2018-12-21T10:39:04.885Z,8.7
2018-12-21T10:40:05.055Z,8.85
2018-12-21T10:41:04.813Z,8.74
2018-12-21T10:42:05.339Z,8.73
2018-12-21T10:43:05.112Z,8.85
2018-12-21T10:44:05.385Z,8.89
2018-12-21T10:45:04.883Z,8.88
2018-12-21T10:46:05.153Z,8.91
2018-12-21T10:47:04.933Z,8.94
2018-12-21T10:48:04.937Z,9
2018-12-21T10:49:05.213Z,8.92
2018-12-21T10:50:05.482Z,9
2018-12-21T10:51:05.509Z,9
2018-12-21T10:52:05.273Z,9.02
2018-12-21T10:53:05.281Z,9.04
2018-12-21T10:54:05.328Z,9.02
2018-12-21T10:55:05.340Z,9.08
2018-12-21T10:56:05.604Z,9.08
2018-12-21T10:57:05.639Z,9.08
2018-12-21T10:58:05.125Z,9.06
2018-12-21T10:59:05.391Z,9.18
2018-12-21T11:00:05.413Z,9.19
2018-12-21T11:01:05.511Z,9.18
2018-12-21T11:02:05.467Z,9.32
2018-12-21T11:03:05.721Z,9.14
2018-12-21T11:04:05.241Z,9.28
2018-12-21T11:05:05.244Z,9.31
2018-12-21T11:06:05.351Z,9.28
2018-12-21T11:07:05.286Z,9.28
2018-12-21T11:08:05.297Z,9.34
2018-12-21T11:09:05.623Z,9.29
2018-12-21T11:10:05.595Z,9.26
2018-12-21T11:11:05.359Z,9.32
2018-12-21T11:12:05.383Z,9.36
2018-12-21T11:13:05.392Z,9.37
2018-12-21T11:14:05.718Z,9.37
2018-12-21T11:15:05.699Z,9.4
2018-12-21T11:16:05.701Z,9.36
2018-12-21T11:17:05.731Z,9.44
2018-12-21T11:18:06.103Z,9.51
2018-12-21T11:19:06.025Z,9.55
2018-12-21T11:20:05.527Z,9.46
2018-12-21T11:21:06.064Z,9.48
2018-12-21T11:22:05.823Z,9.5
2018-12-21T11:23:05.847Z,9.51
2018-12-21T11:24:06.116Z,9.51
2018-12-21T11:25:05.885Z,9.54
2018-12-21T11:26:05.879Z,9.56
2018-12-21T11:27:05.658Z,9.54
2018-12-21T11:28:05.941Z,9.56
2018-12-21T11:29:05.946Z,9.58
2018-12-21T11:30:05.972Z,9.54
2018-12-21T11:31:06.234Z,9.54
2018-12-21T11:32:06.004Z,9.58
2018-12-21T11:33:05.761Z,9.65
2018-12-21T11:34:05.787Z,9.61
2018-12-21T11:35:06.061Z,9.66
2018-12-21T11:36:05.823Z,9.69
2018-12-21T11:37:05.830Z,9.65
2018-12-21T11:38:06.109Z,9.73
2018-12-21T11:39:06.409Z,9.61
2018-12-21T11:40:06.149Z,9.74
2018-12-21T11:41:06.186Z,9.66
2018-12-21T11:42:06.201Z,9.68
2018-12-21T11:43:05.947Z,9.68
2018-12-21T11:44:06.498Z,9.77
2018-12-21T11:45:06.243Z,9.74
2018-12-21T11:46:06.271Z,9.68
2018-12-21T11:47:06.276Z,9.72
2018-12-21T11:48:06.300Z,9.73
2018-12-21T11:49:06.315Z,9.69
2018-12-21T11:50:06.438Z,9.74
2018-12-21T11:51:06.098Z,9.72
2018-12-21T11:52:06.117Z,9.8
2018-12-21T11:53:06.145Z,9.76
2018-12-21T11:54:06.405Z,9.82
2018-12-21T11:55:06.707Z,9.83
2018-12-21T11:56:06.447Z,9.79
2018-12-21T11:57:06.223Z,9.74
2018-12-21T11:58:06.232Z,9.74
2018-12-21T11:59:06.510Z,9.77
2018-12-21T12:00:06.795Z,9.8
2018-12-21T12:01:06.534Z,9.83
2018-12-21T12:02:06.302Z,9.89
2018-12-21T12:03:06.588Z,9.86
2018-12-21T12:04:06.355Z,9.82
2018-12-21T12:05:07.518Z,9.92
2018-12-21T12:06:06.644Z,9.86
2018-12-21T12:07:06.755Z,9.91
2018-12-21T12:08:06.784Z,9.89
2018-12-21T12:09:10.935Z,9.94
2018-12-21T12:10:06.974Z,9.94
2018-12-21T12:11:06.474Z,9.97
2018-12-21T12:12:06.749Z,9.98
2018-12-21T12:13:06.768Z,10.02
2018-12-21T12:14:06.549Z,10.02
2018-12-21T12:15:06.796Z,9.98
2018-12-21T12:16:06.834Z,10.04
2018-12-21T12:17:06.582Z,10.05
2018-12-21T12:18:06.601Z,10.02
2018-12-21T12:19:06.660Z,10.05
2018-12-21T12:20:06.909Z,10.07
2018-12-21T12:21:06.916Z,10.09
2018-12-21T12:22:06.932Z,10.07
2018-12-21T12:23:06.951Z,10.07
2018-12-21T12:24:06.707Z,10.05
2018-12-21T12:25:06.981Z,10.12
2018-12-21T12:26:06.999Z,10.15
2018-12-21T12:27:07.089Z,10.15
2018-12-21T12:28:07.039Z,10.19
2018-12-21T12:29:06.797Z,10.17
2018-12-21T12:30:06.979Z,10.16
2018-12-21T12:31:06.850Z,10.15
2018-12-21T12:32:06.867Z,10.25
2018-12-21T12:33:07.136Z,10.3
2018-12-21T12:34:06.900Z,10.25
2018-12-21T12:35:07.430Z,10.28
2018-12-21T12:36:07.197Z,10.3
2018-12-21T12:37:07.211Z,10.28
2018-12-21T12:38:06.971Z,10.3
2018-12-21T12:39:06.997Z,10.34
2018-12-21T12:40:07.014Z,10.35
2018-12-21T12:41:11.530Z,10.34
2018-12-21T12:42:08.413Z,10.37
2018-12-21T12:43:07.329Z,10.35
2018-12-21T12:44:07.348Z,10.37
2018-12-21T12:45:07.117Z,10.4
2018-12-21T12:46:07.377Z,10.42
2018-12-21T12:47:07.412Z,10.38
2018-12-21T12:48:07.670Z,10.41
2018-12-21T12:49:07.173Z,10.44
2018-12-21T12:50:07.206Z,10.37
2018-12-21T12:51:07.477Z,10.46
2018-12-21T12:52:07.236Z,10.42
2018-12-21T12:53:07.515Z,10.51
2018-12-21T12:54:07.525Z,10.49
2018-12-21T12:55:07.696Z,10.49
2018-12-21T12:56:09.853Z,10.41
2018-12-21T12:57:07.843Z,10.54
2018-12-21T12:58:07.870Z,10.48
2018-12-21T12:59:07.669Z,10.53
2018-12-21T13:00:07.660Z,10.63
2018-12-21T13:01:07.666Z,10.57
2018-12-21T13:02:07.678Z,10.6
2018-12-21T13:03:07.446Z,10.56
2018-12-21T13:04:07.718Z,10.48
2018-12-21T13:05:07.470Z,10.6
2018-12-21T13:06:07.746Z,10.57
2018-12-21T13:07:07.507Z,10.57
2018-12-21T13:08:07.528Z,10.61
2018-12-21T13:09:07.803Z,10.6
2018-12-21T13:10:07.847Z,10.6
2018-12-21T13:11:07.604Z,10.63
2018-12-21T13:12:07.613Z,10.57
2018-12-21T13:13:07.891Z,10.63
2018-12-21T13:14:07.907Z,10.6
2018-12-21T13:15:07.661Z,10.59
2018-12-21T13:16:07.678Z,10.6
2018-12-21T13:17:07.709Z,10.61
2018-12-21T13:18:07.977Z,10.61
2018-12-21T13:19:08.257Z,10.68
2018-12-21T13:20:07.763Z,10.63
2018-12-21T13:21:07.801Z,10.6